Terminal Aerodrome Forecast
Issued by NWS

Home | Current Version | Previous Version | Text Only | Print | Product List | Glossary On
Versions: 1 2 3 4 5 6 7 8 9 10 11 12 13 14 15 16
782
FTUS44 KBMX 222337
TAFTOI
TAF
KTOI 222337Z 2300/2324 08004KT P6SM SKC
     FM230600 00000KT 6SM BR SCT250
      TEMPO 2310/2313 5SM BR
     FM231600 07007KT P6SM SCT040=

USA.gov is the U.S. government's official web portal to all federal, state and local government web resources and services.